sensor_id;sensor_type;location;lat;lon;timestamp;P1;durP1;ratioP1;P2;durP2;ratioP2
5813;SDS011;2933;52.302;8.134;2023-09-08T00:03:07;4.63;;;4.33;;
5813;SDS011;2933;52.302;8.134;2023-09-08T00:08:08;4.50;;;4.20;;
5813;SDS011;2933;52.302;8.134;2023-09-08T00:13:10;4.00;;;3.70;;
5813;SDS011;2933;52.302;8.134;2023-09-08T00:18:13;4.00;;;3.80;;
5813;SDS011;2933;52.302;8.134;2023-09-08T00:23:15;4.27;;;3.97;;
5813;SDS011;2933;52.302;8.134;2023-09-08T00:28:16;4.33;;;3.93;;
5813;SDS011;2933;52.302;8.134;2023-09-08T00:33:19;4.53;;;4.20;;
5813;SDS011;2933;52.302;8.134;2023-09-08T00:38:22;4.20;;;3.87;;
5813;SDS011;2933;52.302;8.134;2023-09-08T00:43:24;7.37;;;4.97;;
5813;SDS011;2933;52.302;8.134;2023-09-08T00:48:27;5.73;;;5.10;;
5813;SDS011;2933;52.302;8.134;2023-09-08T00:53:28;6.50;;;5.43;;
5813;SDS011;2933;52.302;8.134;2023-09-08T00:58:30;7.20;;;5.10;;
5813;SDS011;2933;52.302;8.134;2023-09-08T01:03:33;4.90;;;4.50;;
5813;SDS011;2933;52.302;8.134;2023-09-08T01:08:35;5.10;;;4.60;;
5813;SDS011;2933;52.302;8.134;2023-09-08T01:13:37;5.60;;;4.80;;
5813;SDS011;2933;52.302;8.134;2023-09-08T01:18:40;5.03;;;4.70;;
5813;SDS011;2933;52.302;8.134;2023-09-08T01:23:47;4.93;;;4.53;;
5813;SDS011;2933;52.302;8.134;2023-09-08T01:29:01;6.77;;;5.30;;
5813;SDS011;2933;52.302;8.134;2023-09-08T01:34:07;5.80;;;4.90;;
5813;SDS011;2933;52.302;8.134;2023-09-08T01:39:10;4.70;;;4.30;;
5813;SDS011;2933;52.302;8.134;2023-09-08T01:44:12;5.93;;;5.33;;
5813;SDS011;2933;52.302;8.134;2023-09-08T01:49:14;5.23;;;4.83;;
5813;SDS011;2933;52.302;8.134;2023-09-08T01:54:16;5.57;;;5.00;;
5813;SDS011;2933;52.302;8.134;2023-09-08T01:59:19;10.53;;;5.10;;
5813;SDS011;2933;52.302;8.134;2023-09-08T02:04:20;7.57;;;4.90;;
5813;SDS011;2933;52.302;8.134;2023-09-08T02:09:29;4.60;;;4.23;;
5813;SDS011;2933;52.302;8.134;2023-09-08T02:14:33;5.37;;;5.00;;
5813;SDS011;2933;52.302;8.134;2023-09-08T02:19:34;9.93;;;4.97;;
5813;SDS011;2933;52.302;8.134;2023-09-08T02:24:36;5.20;;;4.70;;
5813;SDS011;2933;52.302;8.134;2023-09-08T02:29:39;6.17;;;5.03;;
5813;SDS011;2933;52.302;8.134;2023-09-08T02:34:40;4.73;;;4.33;;
5813;SDS011;2933;52.302;8.134;2023-09-08T02:39:43;5.70;;;4.67;;
5813;SDS011;2933;52.302;8.134;2023-09-08T02:44:46;4.87;;;4.33;;
5813;SDS011;2933;52.302;8.134;2023-09-08T02:49:47;4.73;;;4.33;;
5813;SDS011;2933;52.302;8.134;2023-09-08T02:54:49;7.20;;;5.47;;
5813;SDS011;2933;52.302;8.134;2023-09-08T02:59:52;7.27;;;5.40;;
5813;SDS011;2933;52.302;8.134;2023-09-08T03:04:56;6.00;;;4.87;;
5813;SDS011;2933;52.302;8.134;2023-09-08T03:09:58;6.73;;;4.80;;
5813;SDS011;2933;52.302;8.134;2023-09-08T03:15:02;5.10;;;4.60;;
5813;SDS011;2933;52.302;8.134;2023-09-08T03:20:04;6.27;;;4.80;;
5813;SDS011;2933;52.302;8.134;2023-09-08T03:25:08;6.90;;;4.73;;
5813;SDS011;2933;52.302;8.134;2023-09-08T03:30:11;5.17;;;4.73;;
5813;SDS011;2933;52.302;8.134;2023-09-08T03:35:14;5.87;;;5.10;;
5813;SDS011;2933;52.302;8.134;2023-09-08T03:40:15;6.70;;;5.40;;
5813;SDS011;2933;52.302;8.134;2023-09-08T03:45:18;10.10;;;5.10;;
5813;SDS011;2933;52.302;8.134;2023-09-08T03:50:20;4.60;;;4.30;;
5813;SDS011;2933;52.302;8.134;2023-09-08T03:55:21;5.03;;;4.60;;
5813;SDS011;2933;52.302;8.134;2023-09-08T04:00:24;4.87;;;4.47;;
5813;SDS011;2933;52.302;8.134;2023-09-08T04:05:26;5.23;;;4.47;;
5813;SDS011;2933;52.302;8.134;2023-09-08T04:10:27;6.80;;;4.67;;
5813;SDS011;2933;52.302;8.134;2023-09-08T04:15:30;5.60;;;5.00;;
5813;SDS011;2933;52.302;8.134;2023-09-08T04:20:33;4.93;;;4.53;;
5813;SDS011;2933;52.302;8.134;2023-09-08T04:25:35;6.83;;;5.30;;
5813;SDS011;2933;52.302;8.134;2023-09-08T04:30:38;8.10;;;4.70;;
5813;SDS011;2933;52.302;8.134;2023-09-08T04:35:40;4.83;;;4.43;;
5813;SDS011;2933;52.302;8.134;2023-09-08T04:40:41;5.10;;;4.70;;
5813;SDS011;2933;52.302;8.134;2023-09-08T04:45:44;6.80;;;5.37;;
5813;SDS011;2933;52.302;8.134;2023-09-08T04:50:46;5.93;;;5.37;;
5813;SDS011;2933;52.302;8.134;2023-09-08T04:55:48;6.53;;;5.07;;
5813;SDS011;2933;52.302;8.134;2023-09-08T05:00:51;5.60;;;4.83;;
5813;SDS011;2933;52.302;8.134;2023-09-08T05:05:52;5.20;;;4.47;;
5813;SDS011;2933;52.302;8.134;2023-09-08T05:10:54;5.43;;;4.93;;
5813;SDS011;2933;52.302;8.134;2023-09-08T05:15:57;7.30;;;4.53;;
5813;SDS011;2933;52.302;8.134;2023-09-08T05:21:00;9.70;;;5.70;;
5813;SDS011;2933;52.302;8.134;2023-09-08T05:26:01;6.63;;;5.07;;
5813;SDS011;2933;52.302;8.134;2023-09-08T05:31:04;5.67;;;4.93;;
5813;SDS011;2933;52.302;8.134;2023-09-08T05:36:06;6.57;;;5.00;;
5813;SDS011;2933;52.302;8.134;2023-09-08T05:41:07;4.30;;;4.10;;
5813;SDS011;2933;52.302;8.134;2023-09-08T05:46:10;5.27;;;4.77;;
5813;SDS011;2933;52.302;8.134;2023-09-08T05:51:13;5.37;;;4.60;;
5813;SDS011;2933;52.302;8.134;2023-09-08T05:56:15;5.63;;;4.80;;
5813;SDS011;2933;52.302;8.134;2023-09-08T06:01:18;5.47;;;4.70;;
5813;SDS011;2933;52.302;8.134;2023-09-08T06:06:19;5.13;;;4.60;;
5813;SDS011;2933;52.302;8.134;2023-09-08T06:11:21;4.90;;;4.40;;
5813;SDS011;2933;52.302;8.134;2023-09-08T06:16:24;7.40;;;4.93;;
5813;SDS011;2933;52.302;8.134;2023-09-08T06:21:25;4.30;;;4.00;;
5813;SDS011;2933;52.302;8.134;2023-09-08T06:26:27;5.17;;;4.67;;
5813;SDS011;2933;52.302;8.134;2023-09-08T06:31:30;6.10;;;4.40;;
5813;SDS011;2933;52.302;8.134;2023-09-08T06:36:31;5.27;;;4.77;;
5813;SDS011;2933;52.302;8.134;2023-09-08T06:41:33;5.37;;;4.40;;
5813;SDS011;2933;52.302;8.134;2023-09-08T06:46:36;4.60;;;4.30;;
5813;SDS011;2933;52.302;8.134;2023-09-08T06:51:37;6.20;;;5.10;;
5813;SDS011;2933;52.302;8.134;2023-09-08T06:56:39;4.63;;;4.10;;
5813;SDS011;2933;52.302;8.134;2023-09-08T07:01:42;4.80;;;4.40;;
5813;SDS011;2933;52.302;8.134;2023-09-08T07:06:44;5.17;;;4.70;;
5813;SDS011;2933;52.302;8.134;2023-09-08T07:11:46;4.53;;;4.10;;
5813;SDS011;2933;52.302;8.134;2023-09-08T07:16:49;5.40;;;4.90;;
5813;SDS011;2933;52.302;8.134;2023-09-08T07:21:51;5.07;;;4.30;;
5813;SDS011;2933;52.302;8.134;2023-09-08T07:26:52;4.40;;;4.00;;
5813;SDS011;2933;52.302;8.134;2023-09-08T07:31:55;5.00;;;4.50;;
5813;SDS011;2933;52.302;8.134;2023-09-08T07:36:57;7.20;;;4.70;;
5813;SDS011;2933;52.302;8.134;2023-09-08T07:41:58;5.57;;;5.03;;
5813;SDS011;2933;52.302;8.134;2023-09-08T07:47:01;5.00;;;3.90;;
5813;SDS011;2933;52.302;8.134;2023-09-08T07:52:03;7.63;;;4.87;;
5813;SDS011;2933;52.302;8.134;2023-09-08T07:57:07;5.07;;;4.67;;
5813;SDS011;2933;52.302;8.134;2023-09-08T08:02:10;4.77;;;4.10;;
5813;SDS011;2933;52.302;8.134;2023-09-08T08:07:11;5.17;;;4.67;;
5813;SDS011;2933;52.302;8.134;2023-09-08T08:12:13;4.80;;;4.30;;
5813;SDS011;2933;52.302;8.134;2023-09-08T08:17:16;6.23;;;4.07;;
5813;SDS011;2933;52.302;8.134;2023-09-08T08:22:19;5.10;;;4.13;;
5813;SDS011;2933;52.302;8.134;2023-09-08T08:27:21;4.27;;;3.90;;
5813;SDS011;2933;52.302;8.134;2023-09-08T08:32:24;7.07;;;4.80;;
5813;SDS011;2933;52.302;8.134;2023-09-08T08:37:25;6.40;;;3.90;;
5813;SDS011;2933;52.302;8.134;2023-09-08T08:42:30;9.33;;;4.80;;
5813;SDS011;2933;52.302;8.134;2023-09-08T08:47:33;4.37;;;4.07;;
5813;SDS011;2933;52.302;8.134;2023-09-08T08:52:35;4.40;;;3.93;;
5813;SDS011;2933;52.302;8.134;2023-09-08T08:57:37;4.10;;;3.70;;
5813;SDS011;2933;52.302;8.134;2023-09-08T09:02:41;4.23;;;3.80;;
5813;SDS011;2933;52.302;8.134;2023-09-08T09:07:44;4.27;;;3.87;;
5813;SDS011;2933;52.302;8.134;2023-09-08T09:12:45;4.73;;;4.00;;
5813;SDS011;2933;52.302;8.134;2023-09-08T09:17:54;3.87;;;3.57;;
5813;SDS011;2933;52.302;8.134;2023-09-08T09:23:03;5.00;;;4.50;;
5813;SDS011;2933;52.302;8.134;2023-09-08T09:28:05;6.13;;;3.47;;
5813;SDS011;2933;52.302;8.134;2023-09-08T09:33:08;5.17;;;4.13;;
5813;SDS011;2933;52.302;8.134;2023-09-08T09:38:11;4.93;;;3.73;;
5813;SDS011;2933;52.302;8.134;2023-09-08T09:43:13;4.50;;;4.10;;
5813;SDS011;2933;52.302;8.134;2023-09-08T09:48:17;9.67;;;4.03;;
5813;SDS011;2933;52.302;8.134;2023-09-08T09:53:20;6.20;;;4.07;;
5813;SDS011;2933;52.302;8.134;2023-09-08T09:58:23;4.00;;;3.70;;
5813;SDS011;2933;52.302;8.134;2023-09-08T10:03:28;3.90;;;3.30;;
5813;SDS011;2933;52.302;8.134;2023-09-08T10:08:32;3.70;;;3.50;;
5813;SDS011;2933;52.302;8.134;2023-09-08T10:13:38;4.10;;;3.70;;
5813;SDS011;2933;52.302;8.134;2023-09-08T10:18:42;4.17;;;3.07;;
5813;SDS011;2933;52.302;8.134;2023-09-08T10:23:49;3.63;;;2.83;;
5813;SDS011;2933;52.302;8.134;2023-09-08T10:28:54;7.77;;;3.83;;
5813;SDS011;2933;52.302;8.134;2023-09-08T10:33:58;4.30;;;3.00;;
5813;SDS011;2933;52.302;8.134;2023-09-08T10:44:35;3.93;;;3.60;;
5813;SDS011;2933;52.302;8.134;2023-09-08T10:49:40;4.20;;;3.90;;
5813;SDS011;2933;52.302;8.134;2023-09-08T10:54:42;3.23;;;3.03;;
5813;SDS011;2933;52.302;8.134;2023-09-08T10:59:44;4.27;;;3.43;;
5813;SDS011;2933;52.302;8.134;2023-09-08T11:04:47;4.03;;;3.33;;
5813;SDS011;2933;52.302;8.134;2023-09-08T11:09:49;7.43;;;3.50;;
5813;SDS011;2933;52.302;8.134;2023-09-08T11:14:51;3.40;;;3.20;;
5813;SDS011;2933;52.302;8.134;2023-09-08T11:19:54;3.50;;;3.20;;
5813;SDS011;2933;52.302;8.134;2023-09-08T11:24:56;4.27;;;3.87;;
5813;SDS011;2933;52.302;8.134;2023-09-08T11:29:58;3.80;;;3.50;;
5813;SDS011;2933;52.302;8.134;2023-09-08T11:35:03;3.17;;;3.07;;
5813;SDS011;2933;52.302;8.134;2023-09-08T11:40:07;3.60;;;3.40;;
5813;SDS011;2933;52.302;8.134;2023-09-08T11:45:12;5.33;;;3.53;;
5813;SDS011;2933;52.302;8.134;2023-09-08T11:50:16;3.67;;;3.33;;
5813;SDS011;2933;52.302;8.134;2023-09-08T11:55:20;6.10;;;3.30;;
5813;SDS011;2933;52.302;8.134;2023-09-08T12:00:23;3.67;;;3.33;;
5813;SDS011;2933;52.302;8.134;2023-09-08T12:05:27;3.30;;;3.10;;
5813;SDS011;2933;52.302;8.134;2023-09-08T12:10:29;3.60;;;3.30;;
5813;SDS011;2933;52.302;8.134;2023-09-08T12:15:32;6.73;;;3.40;;
5813;SDS011;2933;52.302;8.134;2023-09-08T12:20:37;4.13;;;3.73;;
5813;SDS011;2933;52.302;8.134;2023-09-08T12:25:44;3.93;;;2.70;;
5813;SDS011;2933;52.302;8.134;2023-09-08T12:30:46;3.27;;;3.00;;
5813;SDS011;2933;52.302;8.134;2023-09-08T12:35:49;3.90;;;2.87;;
5813;SDS011;2933;52.302;8.134;2023-09-08T12:40:52;3.27;;;3.13;;
5813;SDS011;2933;52.302;8.134;2023-09-08T12:45:54;5.10;;;3.47;;
5813;SDS011;2933;52.302;8.134;2023-09-08T12:50:57;3.57;;;3.33;;
5813;SDS011;2933;52.302;8.134;2023-09-08T12:55:59;3.47;;;3.17;;
5813;SDS011;2933;52.302;8.134;2023-09-08T13:01:01;4.70;;;4.23;;
5813;SDS011;2933;52.302;8.134;2023-09-08T13:06:06;3.00;;;2.77;;
5813;SDS011;2933;52.302;8.134;2023-09-08T13:11:08;3.07;;;2.87;;
5813;SDS011;2933;52.302;8.134;2023-09-08T13:16:09;4.87;;;3.70;;
5813;SDS011;2933;52.302;8.134;2023-09-08T13:21:12;4.40;;;3.53;;
5813;SDS011;2933;52.302;8.134;2023-09-08T13:26:14;8.63;;;2.80;;
5813;SDS011;2933;52.302;8.134;2023-09-08T13:31:16;3.57;;;3.37;;
5813;SDS011;2933;52.302;8.134;2023-09-08T13:36:19;3.70;;;3.40;;
5813;SDS011;2933;52.302;8.134;2023-09-08T13:41:20;3.40;;;3.10;;
5813;SDS011;2933;52.302;8.134;2023-09-08T13:46:22;3.73;;;3.53;;
5813;SDS011;2933;52.302;8.134;2023-09-08T13:51:24;3.30;;;3.00;;
5813;SDS011;2933;52.302;8.134;2023-09-08T13:56:26;3.13;;;2.80;;
5813;SDS011;2933;52.302;8.134;2023-09-08T14:01:28;3.57;;;2.90;;
5813;SDS011;2933;52.302;8.134;2023-09-08T14:06:31;3.20;;;2.90;;
5813;SDS011;2933;52.302;8.134;2023-09-08T14:11:32;2.60;;;2.47;;
5813;SDS011;2933;52.302;8.134;2023-09-08T14:16:34;4.70;;;2.70;;
5813;SDS011;2933;52.302;8.134;2023-09-08T14:21:37;3.53;;;2.30;;
5813;SDS011;2933;52.302;8.134;2023-09-08T14:26:39;2.73;;;2.63;;
5813;SDS011;2933;52.302;8.134;2023-09-08T14:31:41;3.00;;;2.70;;
5813;SDS011;2933;52.302;8.134;2023-09-08T14:36:45;3.00;;;2.80;;
5813;SDS011;2933;52.302;8.134;2023-09-08T14:41:46;4.60;;;2.60;;
5813;SDS011;2933;52.302;8.134;2023-09-08T14:46:48;4.70;;;2.67;;
5813;SDS011;2933;52.302;8.134;2023-09-08T14:51:51;3.27;;;2.90;;
5813;SDS011;2933;52.302;8.134;2023-09-08T14:56:52;7.13;;;3.73;;
5813;SDS011;2933;52.302;8.134;2023-09-08T15:01:54;7.13;;;2.60;;
5813;SDS011;2933;52.302;8.134;2023-09-08T15:06:57;3.17;;;2.97;;
5813;SDS011;2933;52.302;8.134;2023-09-08T15:11:59;3.40;;;2.93;;
5813;SDS011;2933;52.302;8.134;2023-09-08T15:17:01;2.60;;;2.40;;
5813;SDS011;2933;52.302;8.134;2023-09-08T15:22:04;11.50;;;3.17;;
5813;SDS011;2933;52.302;8.134;2023-09-08T15:27:06;8.03;;;3.10;;
5813;SDS011;2933;52.302;8.134;2023-09-08T15:32:07;2.90;;;2.70;;
5813;SDS011;2933;52.302;8.134;2023-09-08T15:37:10;3.50;;;3.30;;
5813;SDS011;2933;52.302;8.134;2023-09-08T15:42:12;3.10;;;2.90;;
5813;SDS011;2933;52.302;8.134;2023-09-08T15:47:13;2.53;;;2.33;;
5813;SDS011;2933;52.302;8.134;2023-09-08T15:52:16;3.87;;;3.30;;
5813;SDS011;2933;52.302;8.134;2023-09-08T15:57:18;2.90;;;2.70;;
5813;SDS011;2933;52.302;8.134;2023-09-08T16:02:19;6.83;;;2.97;;
5813;SDS011;2933;52.302;8.134;2023-09-08T16:07:22;3.23;;;3.03;;
5813;SDS011;2933;52.302;8.134;2023-09-08T16:12:24;2.93;;;2.73;;
5813;SDS011;2933;52.302;8.134;2023-09-08T16:17:25;2.93;;;2.73;;
5813;SDS011;2933;52.302;8.134;2023-09-08T16:22:29;2.87;;;2.67;;
5813;SDS011;2933;52.302;8.134;2023-09-08T16:27:31;3.40;;;2.90;;
5813;SDS011;2933;52.302;8.134;2023-09-08T16:32:33;2.83;;;2.73;;
5813;SDS011;2933;52.302;8.134;2023-09-08T16:37:36;3.40;;;3.10;;
5813;SDS011;2933;52.302;8.134;2023-09-08T16:42:37;3.00;;;2.80;;
5813;SDS011;2933;52.302;8.134;2023-09-08T16:47:39;3.27;;;2.97;;
5813;SDS011;2933;52.302;8.134;2023-09-08T16:52:42;3.40;;;2.70;;
5813;SDS011;2933;52.302;8.134;2023-09-08T16:57:43;3.17;;;2.93;;
5813;SDS011;2933;52.302;8.134;2023-09-08T17:02:45;4.27;;;3.77;;
5813;SDS011;2933;52.302;8.134;2023-09-08T17:07:48;3.23;;;2.90;;
5813;SDS011;2933;52.302;8.134;2023-09-08T17:12:51;3.43;;;3.13;;
5813;SDS011;2933;52.302;8.134;2023-09-08T17:17:52;3.23;;;3.03;;
5813;SDS011;2933;52.302;8.134;2023-09-08T17:22:55;3.10;;;2.90;;
5813;SDS011;2933;52.302;8.134;2023-09-08T17:27:57;4.10;;;3.53;;
5813;SDS011;2933;52.302;8.134;2023-09-08T17:32:58;4.03;;;3.50;;
5813;SDS011;2933;52.302;8.134;2023-09-08T17:38:01;4.83;;;3.87;;
5813;SDS011;2933;52.302;8.134;2023-09-08T17:43:03;4.93;;;3.63;;
5813;SDS011;2933;52.302;8.134;2023-09-08T17:48:05;4.93;;;3.70;;
5813;SDS011;2933;52.302;8.134;2023-09-08T17:53:09;3.60;;;3.40;;
5813;SDS011;2933;52.302;8.134;2023-09-08T17:58:10;3.53;;;3.23;;
5813;SDS011;2933;52.302;8.134;2023-09-08T18:03:12;4.57;;;3.67;;
5813;SDS011;2933;52.302;8.134;2023-09-08T18:08:15;8.43;;;4.00;;
5813;SDS011;2933;52.302;8.134;2023-09-08T18:13:16;4.13;;;3.77;;
5813;SDS011;2933;52.302;8.134;2023-09-08T18:18:18;7.40;;;3.80;;
5813;SDS011;2933;52.302;8.134;2023-09-08T18:23:23;8.70;;;3.63;;
5813;SDS011;2933;52.302;8.134;2023-09-08T18:28:25;4.90;;;4.00;;
5813;SDS011;2933;52.302;8.134;2023-09-08T18:33:26;4.60;;;4.23;;
5813;SDS011;2933;52.302;8.134;2023-09-08T18:38:30;4.30;;;4.00;;
5813;SDS011;2933;52.302;8.134;2023-09-08T18:43:33;4.13;;;3.77;;
5813;SDS011;2933;52.302;8.134;2023-09-08T18:48:35;4.90;;;4.40;;
5813;SDS011;2933;52.302;8.134;2023-09-08T18:53:38;3.63;;;3.43;;
5813;SDS011;2933;52.302;8.134;2023-09-08T18:58:40;4.30;;;3.90;;
5813;SDS011;2933;52.302;8.134;2023-09-08T19:03:42;3.90;;;3.60;;
5813;SDS011;2933;52.302;8.134;2023-09-08T19:08:45;5.20;;;3.80;;
5813;SDS011;2933;52.302;8.134;2023-09-08T19:13:46;7.40;;;4.03;;
5813;SDS011;2933;52.302;8.134;2023-09-08T19:18:48;4.20;;;3.37;;
5813;SDS011;2933;52.302;8.134;2023-09-08T19:23:51;4.13;;;3.83;;
5813;SDS011;2933;52.302;8.134;2023-09-08T19:28:52;4.60;;;3.80;;
5813;SDS011;2933;52.302;8.134;2023-09-08T19:33:55;10.13;;;4.30;;
5813;SDS011;2933;52.302;8.134;2023-09-08T19:38:58;4.70;;;4.27;;
5813;SDS011;2933;52.302;8.134;2023-09-08T19:44:00;4.17;;;3.73;;
5813;SDS011;2933;52.302;8.134;2023-09-08T19:49:03;4.23;;;3.83;;
5813;SDS011;2933;52.302;8.134;2023-09-08T19:54:06;5.57;;;4.20;;
5813;SDS011;2933;52.302;8.134;2023-09-08T19:59:08;4.30;;;3.97;;
5813;SDS011;2933;52.302;8.134;2023-09-08T20:04:09;6.03;;;4.30;;
5813;SDS011;2933;52.302;8.134;2023-09-08T20:09:12;5.03;;;4.57;;
5813;SDS011;2933;52.302;8.134;2023-09-08T20:14:14;4.80;;;4.43;;
5813;SDS011;2933;52.302;8.134;2023-09-08T20:19:15;6.50;;;4.63;;
5813;SDS011;2933;52.302;8.134;2023-09-08T20:24:18;5.43;;;4.40;;
5813;SDS011;2933;52.302;8.134;2023-09-08T20:29:20;6.27;;;4.40;;
5813;SDS011;2933;52.302;8.134;2023-09-08T20:34:21;5.30;;;4.03;;
5813;SDS011;2933;52.302;8.134;2023-09-08T20:39:24;4.67;;;4.10;;
5813;SDS011;2933;52.302;8.134;2023-09-08T20:44:26;7.40;;;4.37;;
5813;SDS011;2933;52.302;8.134;2023-09-08T20:49:28;4.70;;;4.20;;
5813;SDS011;2933;52.302;8.134;2023-09-08T20:54:32;9.30;;;4.50;;
5813;SDS011;2933;52.302;8.134;2023-09-08T20:59:33;7.07;;;5.10;;
5813;SDS011;2933;52.302;8.134;2023-09-08T21:04:35;5.13;;;4.60;;
5813;SDS011;2933;52.302;8.134;2023-09-08T21:09:38;6.30;;;4.23;;
5813;SDS011;2933;52.302;8.134;2023-09-08T21:14:39;11.57;;;5.10;;
5813;SDS011;2933;52.302;8.134;2023-09-08T21:19:41;9.90;;;4.60;;
5813;SDS011;2933;52.302;8.134;2023-09-08T21:24:43;6.73;;;4.60;;
5813;SDS011;2933;52.302;8.134;2023-09-08T21:29:45;4.90;;;4.50;;
5813;SDS011;2933;52.302;8.134;2023-09-08T21:34:47;7.60;;;5.00;;
5813;SDS011;2933;52.302;8.134;2023-09-08T21:39:50;6.50;;;4.53;;
5813;SDS011;2933;52.302;8.134;2023-09-08T21:44:51;7.20;;;4.73;;
5813;SDS011;2933;52.302;8.134;2023-09-08T21:49:53;11.83;;;4.27;;
5813;SDS011;2933;52.302;8.134;2023-09-08T21:54:56;5.87;;;5.30;;
5813;SDS011;2933;52.302;8.134;2023-09-08T21:59:57;5.40;;;4.40;;
5813;SDS011;2933;52.302;8.134;2023-09-08T22:04:59;5.37;;;4.83;;
5813;SDS011;2933;52.302;8.134;2023-09-08T22:10:02;8.03;;;5.47;;
5813;SDS011;2933;52.302;8.134;2023-09-08T22:15:04;9.80;;;5.17;;
5813;SDS011;2933;52.302;8.134;2023-09-08T22:20:07;4.73;;;4.33;;
5813;SDS011;2933;52.302;8.134;2023-09-08T22:25:14;6.40;;;4.87;;
5813;SDS011;2933;52.302;8.134;2023-09-08T22:30:15;5.40;;;4.50;;
5813;SDS011;2933;52.302;8.134;2023-09-08T22:35:18;5.47;;;4.97;;
5813;SDS011;2933;52.302;8.134;2023-09-08T22:40:21;5.70;;;5.10;;
5813;SDS011;2933;52.302;8.134;2023-09-08T22:45:22;8.00;;;4.87;;
5813;SDS011;2933;52.302;8.134;2023-09-08T22:50:24;6.00;;;5.40;;
5813;SDS011;2933;52.302;8.134;2023-09-08T22:55:27;5.00;;;4.70;;
5813;SDS011;2933;52.302;8.134;2023-09-08T23:00:29;6.00;;;5.40;;
5813;SDS011;2933;52.302;8.134;2023-09-08T23:05:30;6.77;;;4.93;;
5813;SDS011;2933;52.302;8.134;2023-09-08T23:10:33;6.07;;;5.30;;
5813;SDS011;2933;52.302;8.134;2023-09-08T23:15:35;5.10;;;4.70;;
5813;SDS011;2933;52.302;8.134;2023-09-08T23:20:36;8.37;;;5.43;;
5813;SDS011;2933;52.302;8.134;2023-09-08T23:25:40;6.50;;;4.87;;
5813;SDS011;2933;52.302;8.134;2023-09-08T23:30:42;5.00;;;4.60;;
5813;SDS011;2933;52.302;8.134;2023-09-08T23:35:44;5.13;;;4.27;;
5813;SDS011;2933;52.302;8.134;2023-09-08T23:40:46;5.83;;;5.17;;
5813;SDS011;2933;52.302;8.134;2023-09-08T23:45:48;6.33;;;4.73;;
5813;SDS011;2933;52.302;8.134;2023-09-08T23:50:50;4.93;;;4.30;;
5813;SDS011;2933;52.302;8.134;2023-09-08T23:55:54;4.93;;;4.50;;
